Time;durP1;ratioP1;P1;durP2;ratioP2;P2;SDS_P1;SDS_P2;PMS_P1;PMS_P2;Temp;Humidity;BMP_temperature;BMP_pressure;BME280_temperature;BME280_humidity;BME280_pressure;Samples;Min_cycle;Max_cycle;Signal;HPM_P1;HPM_P2
2022/03/26 00:02:10;;;;;;;15.33;9.30;;;10.80;49.20;;;;;;4974842;28;20212;-73
2022/03/26 00:04:41;;;;;;;18.90;11.53;;;10.80;48.50;;;;;;4973589;28;20180;-73
2022/03/26 00:07:08;;;;;;;15.10;10.43;;;10.70;48.50;;;;;;4976149;28;20238;-70
2022/03/26 00:09:36;;;;;;;14.07;9.33;;;10.60;48.70;;;;;;4974652;28;20195;-74
2022/03/26 00:12:04;;;;;;;13.60;8.77;;;10.60;49.00;;;;;;4971005;28;20196;-74
2022/03/26 00:14:31;;;;;;;13.17;8.70;;;10.50;49.00;;;;;;4973374;28;20279;-74
2022/03/26 00:17:00;;;;;;;13.67;8.33;;;10.50;49.00;;;;;;4972637;28;20188;-74
2022/03/26 00:19:27;;;;;;;12.67;8.17;;;10.40;48.90;;;;;;4975567;28;20202;-74
2022/03/26 00:21:56;;;;;;;12.37;8.53;;;10.40;49.00;;;;;;4987667;28;20236;-74
2022/03/26 00:24:24;;;;;;;11.67;8.47;;;10.30;48.90;;;;;;4975804;28;20496;-73
2022/03/26 00:26:49;;;;;;;17.67;9.23;;;10.30;49.10;;;;;;4989774;28;20180;-71
2022/03/26 00:29:18;;;;;;;12.07;8.17;;;10.20;49.20;;;;;;4972546;28;20275;-74
2022/03/26 00:31:43;;;;;;;14.37;8.30;;;10.20;49.30;;;;;;4972482;28;20188;-74
2022/03/26 00:34:09;;;;;;;12.80;8.37;;;10.10;49.20;;;;;;4975269;28;20343;-64
2022/03/26 00:36:38;;;;;;;12.43;7.73;;;10.10;49.50;;;;;;4972733;28;20270;-73
2022/03/26 00:39:08;;;;;;;13.97;7.70;;;10.00;49.40;;;;;;4975680;28;20183;-76
2022/03/26 00:41:34;;;;;;;17.17;7.30;;;10.00;49.40;;;;;;4973576;28;20223;-73
2022/03/26 00:44:02;;;;;;;12.40;7.77;;;10.00;49.50;;;;;;4974506;28;20179;-75
2022/03/26 00:46:28;;;;;;;11.87;7.60;;;9.90;50.40;;;;;;4968251;28;20187;-74
2022/03/26 00:48:56;;;;;;;11.73;8.17;;;9.90;50.60;;;;;;4973749;28;20201;-74
2022/03/26 00:51:22;;;;;;;12.50;7.97;;;9.80;50.50;;;;;;4975424;28;20287;-74
2022/03/26 00:53:48;;;;;;;14.60;7.63;;;9.90;50.70;;;;;;4975226;28;20263;-70
2022/03/26 00:56:13;;;;;;;12.30;7.90;;;9.80;50.60;;;;;;4981334;28;20289;-75
2022/03/26 00:58:41;;;;;;;11.37;7.57;;;9.80;50.70;;;;;;4977278;28;20194;-74
2022/03/26 01:01:07;;;;;;;13.07;7.80;;;9.80;50.80;;;;;;4975799;28;20212;-75
2022/03/26 01:03:34;;;;;;;12.90;7.80;;;9.80;50.80;;;;;;4969267;28;20188;-75
2022/03/26 01:05:59;;;;;;;10.43;7.03;;;9.70;50.90;;;;;;4974028;28;20172;-71
2022/03/26 01:08:25;;;;;;;13.13;8.03;;;9.70;50.90;;;;;;4962728;28;20290;-69
2022/03/26 01:10:51;;;;;;;13.17;8.30;;;9.60;50.90;;;;;;4974557;28;20211;-73
2022/03/26 01:13:19;;;;;;;11.67;7.57;;;9.60;51.10;;;;;;4993154;28;20179;-75
2022/03/26 01:15:47;;;;;;;10.33;7.23;;;9.60;51.30;;;;;;4981904;28;20206;-69
2022/03/26 01:18:13;;;;;;;12.93;7.67;;;9.60;51.20;;;;;;4971446;28;20199;-74
2022/03/26 01:20:41;;;;;;;12.77;7.10;;;9.50;51.00;;;;;;4969377;28;20292;-73
2022/03/26 01:23:11;;;;;;;11.93;7.63;;;9.50;51.10;;;;;;4970799;28;20179;-75
2022/03/26 01:25:37;;;;;;;10.50;7.37;;;9.40;51.20;;;;;;4974340;28;20184;-75
2022/03/26 01:28:05;;;;;;;12.33;7.17;;;9.30;51.20;;;;;;4973793;28;20187;-75
2022/03/26 01:30:33;;;;;;;10.90;7.60;;;9.30;51.20;;;;;;4974204;28;20180;-73
2022/03/26 01:33:01;;;;;;;11.63;7.00;;;9.20;51.20;;;;;;4972006;28;20225;-75
2022/03/26 01:35:29;;;;;;;10.87;7.47;;;9.10;51.20;;;;;;4972483;28;20184;-74
2022/03/26 01:38:01;;;;;;;11.17;7.10;;;9.10;51.60;;;;;;4969464;28;20183;-74
2022/03/26 01:40:27;;;;;;;10.67;6.90;;;9.10;51.60;;;;;;4974896;28;20200;-73
2022/03/26 01:42:56;;;;;;;12.90;6.73;;;9.00;51.60;;;;;;4974919;28;20190;-74
2022/03/26 01:45:21;;;;;;;11.27;7.13;;;9.00;51.60;;;;;;4972383;28;20188;-74
2022/03/26 01:47:47;;;;;;;10.83;6.80;;;9.00;51.70;;;;;;4979217;28;20207;-74
2022/03/26 01:50:15;;;;;;;14.57;6.83;;;9.00;51.90;;;;;;4974694;28;20270;-75
2022/03/26 01:52:43;;;;;;;11.33;7.37;;;8.90;51.90;;;;;;4974707;28;20196;-72
2022/03/26 01:55:09;;;;;;;10.23;6.90;;;8.90;52.10;;;;;;4969170;28;20208;-71
2022/03/26 01:57:38;;;;;;;14.20;7.40;;;8.90;52.00;;;;;;4974734;28;20250;-71
2022/03/26 02:00:08;;;;;;;10.40;6.73;;;8.90;52.30;;;;;;4972677;28;20554;-74
2022/03/26 02:02:34;;;;;;;12.83;7.10;;;8.80;52.10;;;;;;4969762;28;20212;-74
2022/03/26 02:05:00;;;;;;;10.10;6.80;;;8.80;52.10;;;;;;4973808;28;20184;-73
2022/03/26 02:07:26;;;;;;;10.50;6.50;;;8.80;52.20;;;;;;4974410;28;20204;-74
2022/03/26 02:09:56;;;;;;;11.27;7.30;;;8.70;52.20;;;;;;4973845;28;20203;-73
2022/03/26 02:12:23;;;;;;;12.07;6.80;;;8.70;52.50;;;;;;4976675;28;20185;-72
2022/03/26 02:14:49;;;;;;;13.13;7.00;;;8.60;52.50;;;;;;4971042;28;20246;-74
2022/03/26 02:17:17;;;;;;;10.47;6.67;;;8.60;52.60;;;;;;4974405;28;20220;-74
2022/03/26 02:19:57;;;;;;;10.07;7.10;;;8.60;52.80;;;;;;4974187;28;20208;-74
2022/03/26 02:22:25;;;;;;;11.43;6.37;;;8.60;53.20;;;;;;4969387;28;20211;-73
2022/03/26 02:24:51;;;;;;;10.57;7.10;;;8.50;53.20;;;;;;4966132;28;20180;-74
2022/03/26 02:27:21;;;;;;;10.47;7.23;;;8.50;53.90;;;;;;4974438;28;20279;-74
2022/03/26 02:29:47;;;;;;;11.43;7.10;;;8.40;53.20;;;;;;4960460;28;20204;-74
2022/03/26 02:32:13;;;;;;;10.23;7.37;;;8.40;53.80;;;;;;4974157;28;20220;-70
2022/03/26 02:34:38;;;;;;;11.60;6.77;;;8.30;53.80;;;;;;4975862;28;20191;-74
2022/03/26 02:37:07;;;;;;;9.57;6.10;;;8.20;53.70;;;;;;4977666;28;20192;-74
2022/03/26 02:39:34;;;;;;;12.67;6.97;;;8.20;53.90;;;;;;4974284;28;20193;-73
2022/03/26 02:42:00;;;;;;;11.17;7.10;;;8.10;54.30;;;;;;4969347;28;20220;-72
2022/03/26 02:44:26;;;;;;;12.33;7.20;;;8.10;54.30;;;;;;4976919;28;20321;-74
2022/03/26 02:46:51;;;;;;;11.00;6.53;;;8.10;54.60;;;;;;4977487;28;20250;-73
2022/03/26 02:49:17;;;;;;;11.73;6.87;;;8.00;54.60;;;;;;4977584;28;20180;-74
2022/03/26 02:51:43;;;;;;;10.73;6.77;;;8.00;55.00;;;;;;4977846;28;20440;-74
2022/03/26 02:54:19;;;;;;;11.33;7.50;;;7.90;55.40;;;;;;4977341;28;20188;-74
2022/03/26 02:56:51;;;;;;;10.43;6.90;;;7.90;56.20;;;;;;4976876;28;20274;-74
2022/03/26 02:59:21;;;;;;;10.70;7.30;;;7.80;56.70;;;;;;4970585;28;20268;-72
2022/03/26 03:01:47;;;;;;;12.67;7.30;;;7.80;56.00;;;;;;4968190;28;20204;-74
2022/03/26 03:04:13;;;;;;;10.77;6.87;;;7.70;55.80;;;;;;4975145;28;20294;-74
2022/03/26 03:06:38;;;;;;;10.60;7.17;;;7.70;55.90;;;;;;4973715;28;20316;-73
2022/03/26 03:09:08;;;;;;;12.30;7.23;;;7.60;55.90;;;;;;4971641;28;20185;-73
2022/03/26 03:11:35;;;;;;;10.60;6.47;;;7.60;56.00;;;;;;4971759;28;20180;-73
2022/03/26 03:14:03;;;;;;;10.60;7.20;;;7.50;56.20;;;;;;4969495;28;20212;-71
2022/03/26 03:16:29;;;;;;;12.17;7.20;;;7.50;56.40;;;;;;4969320;28;20277;-72
2022/03/26 03:18:57;;;;;;;9.70;6.83;;;7.50;56.70;;;;;;4970939;28;20187;-72
2022/03/26 03:21:26;;;;;;;11.33;7.13;;;7.40;57.50;;;;;;4974538;28;20295;-72
2022/03/26 03:23:51;;;;;;;10.90;6.87;;;7.40;57.20;;;;;;4974781;28;20192;-71
2022/03/26 03:26:19;;;;;;;12.20;7.70;;;7.40;57.20;;;;;;4968705;28;21049;-71
2022/03/26 03:28:47;;;;;;;9.93;6.67;;;7.30;57.20;;;;;;4966039;28;20183;-70
2022/03/26 03:31:15;;;;;;;11.47;6.80;;;7.30;57.60;;;;;;4972855;28;20207;-69
2022/03/26 03:33:41;;;;;;;10.90;6.80;;;7.30;57.60;;;;;;4968290;28;20211;-71
2022/03/26 03:36:07;;;;;;;9.23;6.40;;;7.30;58.00;;;;;;4974611;28;20195;-72
2022/03/26 03:38:35;;;;;;;10.07;6.60;;;7.30;57.90;;;;;;4986241;28;20203;-72
2022/03/26 03:41:03;;;;;;;11.50;7.17;;;7.30;58.00;;;;;;4978110;28;20243;-70
2022/03/26 03:43:28;;;;;;;11.77;6.90;;;7.30;58.40;;;;;;4962225;28;20263;-71
2022/03/26 03:45:56;;;;;;;11.07;7.07;;;7.30;59.10;;;;;;4975343;28;20177;-73
2022/03/26 03:48:22;;;;;;;12.50;7.03;;;7.20;59.40;;;;;;4976139;28;20180;-72
2022/03/26 03:50:49;;;;;;;12.20;6.90;;;7.20;59.20;;;;;;4961160;28;20195;-71
2022/03/26 03:53:15;;;;;;;10.57;6.90;;;7.10;58.90;;;;;;4968719;28;20279;-71
2022/03/26 03:55:45;;;;;;;9.17;6.37;;;7.10;59.00;;;;;;4975466;28;20268;-73
2022/03/26 03:58:14;;;;;;;9.40;6.63;;;7.10;59.30;;;;;;4975071;28;20188;-74
2022/03/26 04:00:41;;;;;;;8.67;6.03;;;7.10;59.80;;;;;;4967965;28;20284;-73
2022/03/26 04:03:09;;;;;;;11.20;6.43;;;7.00;59.50;;;;;;4969563;28;20206;-72
2022/03/26 04:05:37;;;;;;;9.80;6.87;;;7.00;59.50;;;;;;4971560;28;20189;-71
2022/03/26 04:08:07;;;;;;;11.03;7.00;;;7.00;59.60;;;;;;4971743;28;20297;-72
2022/03/26 04:10:35;;;;;;;10.17;6.37;;;7.00;59.90;;;;;;4976105;28;20183;-72
2022/03/26 04:13:01;;;;;;;11.53;7.40;;;7.00;59.90;;;;;;4975881;28;20203;-72
2022/03/26 04:15:27;;;;;;;10.57;6.40;;;7.10;59.80;;;;;;4974034;28;20211;-72
2022/03/26 04:17:54;;;;;;;11.13;6.97;;;7.10;59.90;;;;;;4975877;28;20176;-72
2022/03/26 04:20:23;;;;;;;11.40;6.90;;;7.10;60.00;;;;;;4976132;28;20190;-72
2022/03/26 04:22:48;;;;;;;12.97;6.90;;;7.10;60.70;;;;;;4975592;28;20203;-72
2022/03/26 04:25:16;;;;;;;9.20;6.43;;;7.10;60.60;;;;;;4972485;28;20199;-71
2022/03/26 04:27:49;;;;;;;10.40;6.80;;;7.10;60.80;;;;;;4975364;28;20175;-73
2022/03/26 04:30:20;;;;;;;8.90;6.13;;;7.00;61.10;;;;;;4975494;28;20188;-72
2022/03/26 04:32:46;;;;;;;12.20;6.30;;;7.00;61.60;;;;;;4980239;28;20184;-72
2022/03/26 04:35:15;;;;;;;10.43;6.30;;;7.00;61.60;;;;;;4973857;28;20204;-71
2022/03/26 04:37:43;;;;;;;10.80;6.23;;;7.00;61.80;;;;;;4973703;28;20185;-71
2022/03/26 04:40:11;;;;;;;10.90;6.70;;;6.90;62.30;;;;;;4972430;28;20184;-69
2022/03/26 04:42:38;;;;;;;9.50;6.67;;;6.90;62.00;;;;;;4973739;28;20215;-73
2022/03/26 04:45:07;;;;;;;10.20;7.10;;;6.90;61.90;;;;;;4983354;28;20276;-72
2022/03/26 04:47:36;;;;;;;11.73;6.90;;;6.90;62.50;;;;;;4962506;28;20191;-71
2022/03/26 04:50:02;;;;;;;11.33;6.90;;;6.80;62.50;;;;;;4972036;28;20267;-72
2022/03/26 04:52:27;;;;;;;11.70;6.67;;;6.80;62.20;;;;;;4966377;28;20295;-71
2022/03/26 04:54:55;;;;;;;9.90;6.70;;;6.80;62.20;;;;;;4975615;28;20283;-72
2022/03/26 04:57:21;;;;;;;10.67;6.77;;;6.80;62.90;;;;;;4973264;28;20176;-71
2022/03/26 04:59:49;;;;;;;10.43;6.67;;;6.80;62.30;;;;;;4974993;28;20176;-71
2022/03/26 05:02:17;;;;;;;12.60;6.50;;;6.80;62.50;;;;;;4974758;28;20216;-71
2022/03/26 05:04:45;;;;;;;9.70;6.17;;;6.80;62.80;;;;;;4973379;28;20194;-69
2022/03/26 05:09:57;;;;;;;9.93;6.47;;;6.80;63.30;;;;;;4972677;28;20231;-72
2022/03/26 05:12:25;;;;;;;11.77;6.63;;;6.80;63.90;;;;;;4969791;28;20192;-71
2022/03/26 05:14:50;;;;;;;10.37;6.50;;;6.70;63.40;;;;;;4969051;28;20274;-71
2022/03/26 05:17:16;;;;;;;13.33;6.70;;;6.70;63.60;;;;;;4974591;28;20259;-71
2022/03/26 05:19:44;;;;;;;9.23;6.33;;;6.70;64.00;;;;;;4968717;28;20239;-71
2022/03/26 05:22:09;;;;;;;9.50;5.97;;;6.70;64.20;;;;;;4974534;28;20207;-70
2022/03/26 05:24:37;;;;;;;10.50;6.60;;;6.60;64.20;;;;;;4975561;28;20305;-71
2022/03/26 05:27:08;;;;;;;10.37;6.53;;;6.60;64.50;;;;;;4974027;28;20183;-72
2022/03/26 05:29:34;;;;;;;9.27;6.60;;;6.50;65.40;;;;;;4970081;28;20755;-71
2022/03/26 05:31:59;;;;;;;11.70;7.27;;;6.50;65.20;;;;;;4970546;28;20212;-69
2022/03/26 05:34:25;;;;;;;11.03;7.90;;;6.50;65.50;;;;;;4968075;28;20538;-71
2022/03/26 05:36:50;;;;;;;15.50;9.57;;;6.40;66.10;;;;;;4967761;28;20203;-72
2022/03/26 05:39:18;;;;;;;13.20;8.43;;;6.40;66.50;;;;;;4995435;28;20430;-70
2022/03/26 05:41:47;;;;;;;12.37;7.67;;;6.40;66.70;;;;;;4969949;28;20204;-71
2022/03/26 05:44:13;;;;;;;14.00;9.60;;;6.40;67.00;;;;;;4972869;28;20284;-70
2022/03/26 05:46:38;;;;;;;12.63;8.67;;;6.30;67.40;;;;;;4971701;28;20284;-72
2022/03/26 05:49:04;;;;;;;11.73;7.83;;;6.30;68.60;;;;;;4975403;28;20188;-71
2022/03/26 05:51:32;;;;;;;11.77;8.13;;;6.20;68.50;;;;;;4972527;28;20184;-72
2022/03/26 05:54:00;;;;;;;10.93;7.13;;;6.20;69.10;;;;;;4973941;28;20183;-71
2022/03/26 05:56:29;;;;;;;13.33;7.30;;;6.20;69.20;;;;;;4970552;28;20508;-69
2022/03/26 05:58:54;;;;;;;13.17;7.17;;;6.20;69.70;;;;;;4964655;28;20185;-70
2022/03/26 06:01:22;;;;;;;12.47;7.60;;;6.20;69.60;;;;;;4971642;28;20299;-71
2022/03/26 06:03:48;;;;;;;11.13;6.77;;;6.20;70.50;;;;;;4973582;28;20207;-72
2022/03/26 06:06:18;;;;;;;13.53;7.40;;;6.20;70.60;;;;;;4973085;28;20180;-72
2022/03/26 06:08:44;;;;;;;13.70;7.17;;;6.20;71.40;;;;;;4978310;28;20275;-73
2022/03/26 06:11:09;;;;;;;10.47;7.20;;;6.20;71.20;;;;;;4969748;28;20275;-73
2022/03/26 06:13:38;;;;;;;12.20;7.57;;;6.30;71.80;;;;;;4975075;28;20185;-72
2022/03/26 06:16:06;;;;;;;12.30;8.20;;;6.30;72.50;;;;;;4978367;28;20188;-72
2022/03/26 06:18:32;;;;;;;12.10;7.17;;;6.30;72.50;;;;;;4978156;28;20180;-72
2022/03/26 06:20:58;;;;;;;12.50;7.03;;;6.30;71.90;;;;;;4977360;28;20203;-73
2022/03/26 06:23:23;;;;;;;9.67;6.97;;;6.30;72.40;;;;;;4970565;28;20223;-73
2022/03/26 06:25:52;;;;;;;11.73;7.10;;;6.40;72.50;;;;;;4969477;28;20271;-72
2022/03/26 06:28:20;;;;;;;14.33;7.40;;;6.50;73.50;;;;;;4976637;28;20207;-72
2022/03/26 06:30:49;;;;;;;14.10;8.10;;;6.50;73.40;;;;;;4975430;28;20355;-73
2022/03/26 06:33:17;;;;;;;14.07;7.60;;;6.60;73.00;;;;;;4976049;28;20182;-72
2022/03/26 06:35:44;;;;;;;11.77;7.30;;;6.60;72.90;;;;;;4975826;28;20186;-72
2022/03/26 06:38:10;;;;;;;13.63;8.60;;;6.70;73.00;;;;;;4976958;28;20194;-72
2022/03/26 06:40:39;;;;;;;14.13;9.20;;;6.70;73.20;;;;;;4975070;28;20269;-71
2022/03/26 06:43:08;;;;;;;17.43;9.53;;;6.80;73.20;;;;;;4977297;28;20215;-72
2022/03/26 06:45:35;;;;;;;15.53;9.20;;;6.90;74.20;;;;;;4970206;28;20193;-73
2022/03/26 06:48:01;;;;;;;20.80;11.07;;;7.00;73.60;;;;;;4976854;28;20187;-73
2022/03/26 06:50:28;;;;;;;17.17;9.10;;;7.10;73.80;;;;;;4961230;28;20295;-72
2022/03/26 06:52:55;;;;;;;13.23;7.93;;;7.20;73.90;;;;;;4962868;28;20184;-73
2022/03/26 06:55:21;;;;;;;12.47;8.10;;;7.20;73.40;;;;;;4971555;28;20238;-73
2022/03/26 06:57:51;;;;;;;12.67;7.67;;;7.30;73.10;;;;;;4976022;28;20188;-70
2022/03/26 07:00:18;;;;;;;11.60;7.97;;;7.40;73.20;;;;;;4977258;28;20192;-75
2022/03/26 07:02:49;;;;;;;11.37;7.97;;;7.40;73.00;;;;;;4974299;28;20211;-74
2022/03/26 07:05:17;;;;;;;11.57;7.57;;;7.50;73.90;;;;;;4974096;28;20188;-74
2022/03/26 07:07:43;;;;;;;11.37;7.53;;;7.50;74.10;;;;;;4977272;28;20187;-73
2022/03/26 07:10:11;;;;;;;11.47;7.50;;;7.60;73.60;;;;;;4974803;28;20208;-75
2022/03/26 07:12:37;;;;;;;11.23;7.30;;;7.60;74.10;;;;;;4975781;28;20179;-72
2022/03/26 07:15:06;;;;;;;12.87;7.93;;;7.70;74.20;;;;;;4968335;28;20206;-73
2022/03/26 07:17:33;;;;;;;11.77;7.27;;;7.80;75.20;;;;;;4963520;28;20195;-74
2022/03/26 07:20:04;;;;;;;12.27;7.57;;;7.90;74.60;;;;;;4974474;28;20203;-71
2022/03/26 07:22:30;;;;;;;15.07;7.73;;;7.90;75.20;;;;;;4977081;28;20203;-72
2022/03/26 07:24:58;;;;;;;11.70;7.83;;;8.00;74.50;;;;;;4977315;28;20195;-72
2022/03/26 07:27:30;;;;;;;12.10;8.00;;;8.10;75.40;;;;;;4969787;28;20188;-71
2022/03/26 07:29:58;;;;;;;12.80;8.30;;;8.20;75.70;;;;;;4973681;28;20180;-71
2022/03/26 07:32:26;;;;;;;13.77;8.10;;;8.20;75.40;;;;;;4977299;28;20537;-71
2022/03/26 07:34:53;;;;;;;12.17;7.93;;;8.30;75.00;;;;;;4961623;28;20215;-72
2022/03/26 07:37:19;;;;;;;11.53;7.97;;;8.40;75.00;;;;;;4976701;28;20258;-71
2022/03/26 07:39:44;;;;;;;12.83;8.17;;;8.40;75.10;;;;;;4974014;28;20181;-70
2022/03/26 07:42:10;;;;;;;13.00;8.07;;;8.50;75.20;;;;;;4967214;28;20282;-72
2022/03/26 07:44:40;;;;;;;12.27;8.37;;;8.60;75.10;;;;;;4975817;28;20192;-72
2022/03/26 07:47:08;;;;;;;12.47;8.13;;;8.70;75.80;;;;;;4976576;28;20211;-72
2022/03/26 07:49:36;;;;;;;12.70;8.67;;;8.80;75.30;;;;;;4976418;28;20191;-77
2022/03/26 07:52:05;;;;;;;14.47;8.70;;;8.80;75.00;;;;;;4973666;28;20293;-77
2022/03/26 07:54:35;;;;;;;13.77;8.90;;;8.90;75.40;;;;;;4975211;28;20187;-79
2022/03/26 07:57:04;;;;;;;12.90;8.63;;;9.00;75.80;;;;;;4967035;28;20205;-78
2022/03/26 07:59:32;;;;;;;25.53;9.80;;;9.00;75.30;;;;;;4970573;28;20267;-81
2022/03/26 08:01:58;;;;;;;13.70;9.13;;;9.20;76.70;;;;;;4973384;28;20208;-82
2022/03/26 08:04:23;;;;;;;13.53;8.97;;;9.20;75.50;;;;;;4975689;28;20494;-73
2022/03/26 08:06:49;;;;;;;14.30;9.43;;;9.30;75.50;;;;;;4973981;28;20224;-71
2022/03/26 08:09:17;;;;;;;15.17;9.70;;;9.40;75.40;;;;;;4976357;28;20231;-71
2022/03/26 08:11:45;;;;;;;12.90;9.20;;;9.50;75.80;;;;;;4975387;28;20350;-72
2022/03/26 08:14:12;;;;;;;13.97;9.63;;;9.60;75.40;;;;;;4976634;28;20515;-73
2022/03/26 08:16:40;;;;;;;14.13;9.90;;;9.70;75.40;;;;;;4976310;28;20211;-71
2022/03/26 08:19:11;;;;;;;14.10;9.13;;;9.80;75.40;;;;;;4969826;28;20196;-73
2022/03/26 08:21:37;;;;;;;13.70;8.43;;;9.90;75.60;;;;;;4959711;28;20290;-72
2022/03/26 08:24:05;;;;;;;14.50;9.73;;;10.00;74.40;;;;;;4971517;28;20287;-71
2022/03/26 08:26:31;;;;;;;15.30;10.27;;;10.10;74.40;;;;;;4976216;28;20175;-73
2022/03/26 08:29:01;;;;;;;14.77;9.43;;;10.20;74.00;;;;;;4969223;28;20192;-72
2022/03/26 08:31:31;;;;;;;13.07;9.17;;;10.30;73.80;;;;;;4975582;28;20176;-73
2022/03/26 08:34:00;;;;;;;15.43;9.93;;;10.40;73.70;;;;;;4975503;28;20282;-73
2022/03/26 08:36:28;;;;;;;16.97;10.57;;;10.60;73.90;;;;;;4975479;28;20214;-72
2022/03/26 08:38:54;;;;;;;18.00;12.23;;;10.70;73.90;;;;;;4975904;28;20183;-71
2022/03/26 08:41:22;;;;;;;17.83;12.20;;;10.80;74.00;;;;;;4972505;28;20204;-70
2022/03/26 08:43:50;;;;;;;16.53;11.50;;;10.90;74.40;;;;;;4975844;28;20178;-72
2022/03/26 08:46:19;;;;;;;18.97;11.57;;;11.00;73.80;;;;;;4975451;28;20208;-73
2022/03/26 08:48:45;;;;;;;19.97;12.93;;;11.10;73.50;;;;;;4974228;28;20192;-72
2022/03/26 08:51:11;;;;;;;17.33;11.33;;;11.20;73.90;;;;;;4975445;28;20184;-72
2022/03/26 08:53:40;;;;;;;18.90;12.27;;;11.30;73.40;;;;;;4975564;28;20188;-72
2022/03/26 08:56:06;;;;;;;16.23;11.20;;;11.40;73.50;;;;;;4975339;28;20199;-71
2022/03/26 08:58:35;;;;;;;18.38;11.38;;;11.50;73.60;;;;;;4981227;28;20210;-73
2022/03/26 09:01:01;;;;;;;19.98;12.05;;;11.60;73.70;;;;;;4971927;28;20215;-72
2022/03/26 09:03:27;;;;;;;16.15;11.60;;;11.80;73.50;;;;;;4970920;28;20172;-72
2022/03/26 09:05:55;;;;;;;18.63;12.20;;;11.90;73.30;;;;;;4975130;28;20247;-72
2022/03/26 09:08:24;;;;;;;22.33;11.95;;;12.00;73.00;;;;;;4982496;28;20195;-72
2022/03/26 09:10:54;;;;;;;18.08;11.50;;;12.20;72.70;;;;;;4975312;28;20176;-73
2022/03/26 09:13:19;;;;;;;17.45;11.93;;;12.30;72.40;;;;;;4975302;28;20196;-72
2022/03/26 09:15:45;;;;;;;16.70;11.00;;;12.40;72.20;;;;;;4975939;28;20222;-72
2022/03/26 09:18:13;;;;;;;16.92;10.82;;;12.50;72.10;;;;;;4971813;28;20313;-73
2022/03/26 09:20:39;;;;;;;18.98;11.15;;;12.70;72.20;;;;;;4971396;28;20196;-72
2022/03/26 09:23:06;;;;;;;16.05;11.15;;;12.80;72.00;;;;;;4964448;28;20192;-75
2022/03/26 09:25:37;;;;;;;20.00;13.23;;;13.00;71.90;;;;;;4975267;28;20198;-73
2022/03/26 09:28:03;;;;;;;18.20;12.20;;;13.10;71.60;;;;;;4975228;28;20262;-73
2022/03/26 09:30:32;;;;;;;18.55;11.85;;;13.20;72.10;;;;;;4974900;28;20176;-73
2022/03/26 09:32:58;;;;;;;19.60;12.35;;;13.30;71.30;;;;;;4979391;28;20207;-72
2022/03/26 09:35:24;;;;;;;18.02;12.02;;;13.40;71.10;;;;;;4980409;28;20195;-71
2022/03/26 09:37:50;;;;;;;18.83;12.25;;;13.50;71.00;;;;;;4969520;28;20171;-73
2022/03/26 09:40:17;;;;;;;18.60;12.18;;;13.60;70.90;;;;;;4971072;28;20239;-72
2022/03/26 09:42:46;;;;;;;18.67;12.30;;;13.70;70.80;;;;;;4976267;28;20210;-72
2022/03/26 09:45:12;;;;;;;19.15;12.40;;;13.90;70.60;;;;;;4978944;28;20184;-73
2022/03/26 09:47:38;;;;;;;18.23;12.07;;;14.00;70.60;;;;;;4975853;28;20570;-71
2022/03/26 09:50:07;;;;;;;19.35;12.30;;;14.10;70.60;;;;;;4978995;28;20172;-72
2022/03/26 09:52:35;;;;;;;13.98;10.65;;;14.30;70.50;;;;;;4979103;28;20275;-73
2022/03/26 09:55:03;;;;;;;17.58;10.90;;;14.60;70.20;;;;;;4979080;28;20176;-73
2022/03/26 09:57:31;;;;;;;17.52;11.20;;;15.20;69.50;;;;;;4962893;28;20184;-70
2022/03/26 09:59:57;;;;;;;16.90;11.80;;;15.90;67.80;;;;;;4978568;28;20471;-67
2022/03/26 10:02:25;;;;;;;16.60;11.55;;;16.50;66.80;;;;;;4973880;28;20208;-70
2022/03/26 10:04:53;;;;;;;16.27;11.30;;;17.00;65.70;;;;;;4975560;28;20172;-71
2022/03/26 10:07:30;;;;;;;17.15;11.45;;;17.50;64.90;;;;;;4976594;28;20176;-71
2022/03/26 10:09:56;;;;;;;18.77;11.38;;;18.00;63.00;;;;;;4972010;28;20268;-71
2022/03/26 10:12:24;;;;;;;15.32;11.73;;;18.50;63.10;;;;;;4977368;28;20208;-71
2022/03/26 10:15:01;;;;;;;17.83;11.73;;;18.90;62.30;;;;;;4976767;28;20188;-73
2022/03/26 10:17:31;;;;;;;16.95;11.98;;;19.30;60.80;;;;;;4968870;28;20440;-71
2022/03/26 10:20:03;;;;;;;16.75;11.35;;;19.70;61.20;;;;;;4976810;28;20184;-72
2022/03/26 10:22:44;;;;;;;17.33;12.23;;;20.00;60.40;;;;;;4977690;28;20199;-69
2022/03/26 10:25:13;;;;;;;15.75;12.10;;;20.50;58.70;;;;;;4973795;28;20294;-72
2022/03/26 10:27:44;;;;;;;17.55;11.38;;;20.80;59.00;;;;;;4971064;28;20190;-72
2022/03/26 10:30:12;;;;;;;15.20;11.43;;;21.10;59.00;;;;;;4976970;28;20195;-72
2022/03/26 10:32:43;;;;;;;16.15;11.75;;;21.40;58.80;;;;;;4973176;28;20177;-72
2022/03/26 10:35:08;;;;;;;17.35;12.18;;;21.60;58.30;;;;;;4977621;28;20180;-71
2022/03/26 10:37:43;;;;;;;18.75;12.98;;;21.80;57.70;;;;;;4976136;28;20214;-72
2022/03/26 10:40:33;;;;;;;19.10;12.65;;;22.00;56.50;;;;;;4965465;28;20235;-70
2022/03/26 10:43:12;;;;;;;15.10;11.50;;;22.10;55.60;;;;;;4962025;28;20231;-71
2022/03/26 10:45:55;;;;;;;16.95;12.27;;;22.20;56.10;;;;;;4976878;28;20206;-72
2022/03/26 10:48:33;;;;;;;15.95;11.65;;;22.40;55.80;;;;;;4982252;28;20571;-71
2022/03/26 10:51:05;;;;;;;18.67;13.40;;;22.60;55.80;;;;;;4980343;28;20176;-72
2022/03/26 10:53:41;;;;;;;17.55;12.80;;;22.80;55.00;;;;;;4976491;28;20229;-72
2022/03/26 10:56:11;;;;;;;17.98;12.13;;;22.90;54.60;;;;;;4959836;28;20197;-73
2022/03/26 10:58:39;;;;;;;18.17;12.52;;;23.00;54.10;;;;;;4974960;28;20195;-72
2022/03/26 11:01:05;;;;;;;19.05;11.70;;;23.10;54.90;;;;;;4976131;28;20235;-71
2022/03/26 11:03:31;;;;;;;17.88;12.90;;;23.20;54.90;;;;;;4971904;28;20199;-75
2022/03/26 11:06:00;;;;;;;16.15;12.13;;;23.30;53.50;;;;;;4977724;28;20250;-74
2022/03/26 11:08:35;;;;;;;18.17;12.00;;;23.30;53.70;;;;;;4973893;28;20183;-72
2022/03/26 11:11:07;;;;;;;18.50;11.48;;;23.40;53.30;;;;;;4967361;28;20189;-76
2022/03/26 11:13:36;;;;;;;17.63;12.30;;;23.40;52.70;;;;;;4975262;28;20238;-75
2022/03/26 11:16:21;;;;;;;19.45;12.77;;;23.40;52.60;;;;;;4973282;28;20228;-72
2022/03/26 11:19:22;;;;;;;18.73;12.00;;;23.40;51.20;;;;;;4974191;28;20222;-74
2022/03/26 11:22:14;;;;;;;17.05;11.65;;;23.40;51.50;;;;;;4969298;28;20204;-74
2022/03/26 11:25:17;;;;;;;16.55;11.38;;;23.30;51.70;;;;;;4975268;28;20180;-72
2022/03/26 11:28:18;;;;;;;15.57;11.68;;;23.30;51.80;;;;;;4969115;28;20283;-73
2022/03/26 11:30:59;;;;;;;16.92;11.77;;;23.30;51.70;;;;;;4968333;28;20176;-73
2022/03/26 11:33:37;;;;;;;18.92;13.10;;;23.30;52.10;;;;;;4962413;28;20184;-71
2022/03/26 11:36:04;;;;;;;15.95;11.80;;;23.30;52.00;;;;;;4962292;28;20262;-74
2022/03/26 11:38:31;;;;;;;14.90;11.32;;;23.30;52.60;;;;;;4983825;28;20203;-71
2022/03/26 11:41:01;;;;;;;15.85;11.35;;;23.40;52.40;;;;;;4963163;28;20283;-73
2022/03/26 11:43:42;;;;;;;18.63;12.07;;;23.40;52.50;;;;;;4976336;28;20172;-71
2022/03/26 11:52:16;;;;;;;17.88;13.20;;;23.50;52.00;;;;;;4972860;28;20218;-71
2022/03/26 11:54:42;;;;;;;17.42;12.68;;;23.40;50.30;;;;;;4967293;28;20189;-72
2022/03/26 11:57:17;;;;;;;19.08;13.65;;;23.30;50.80;;;;;;4971472;28;20188;-71
2022/03/26 11:59:47;;;;;;;19.95;13.88;;;23.30;50.60;;;;;;4974186;28;20204;-72
2022/03/26 12:02:24;;;;;;;18.33;13.25;;;23.30;51.10;;;;;;4971356;28;20204;-70
2022/03/26 12:04:51;;;;;;;19.42;12.90;;;23.20;50.40;;;;;;4970618;28;20175;-72
2022/03/26 12:07:21;;;;;;;19.65;13.95;;;23.10;50.70;;;;;;4974950;28;20184;-70
2022/03/26 12:10:02;;;;;;;20.52;13.40;;;23.10;49.80;;;;;;4984191;28;20191;-71
2022/03/26 12:12:48;;;;;;;16.48;12.63;;;23.00;50.40;;;;;;4966117;28;20261;-74
2022/03/26 12:15:13;;;;;;;17.15;13.43;;;23.00;50.10;;;;;;4973153;28;20218;-72
2022/03/26 12:17:43;;;;;;;19.80;13.88;;;22.90;49.90;;;;;;4973844;28;20342;-73
2022/03/26 12:20:26;;;;;;;18.05;12.45;;;22.80;49.60;;;;;;4959388;28;20184;-70
2022/03/26 12:23:06;;;;;;;18.05;11.90;;;22.70;49.40;;;;;;4970339;28;20294;-69
2022/03/26 12:25:35;;;;;;;14.32;11.10;;;22.70;49.90;;;;;;4987642;28;20207;-71
2022/03/26 12:28:02;;;;;;;18.30;12.57;;;22.70;50.00;;;;;;4974972;28;20279;-70
2022/03/26 12:30:33;;;;;;;16.67;11.57;;;22.80;50.00;;;;;;4968947;28;20428;-71
2022/03/26 12:33:00;;;;;;;17.88;12.45;;;22.90;49.60;;;;;;4971672;28;20662;-67
2022/03/26 12:35:27;;;;;;;14.13;10.60;;;23.00;49.50;;;;;;4969405;28;20184;-72
2022/03/26 12:37:53;;;;;;;16.90;11.57;;;23.00;49.80;;;;;;4970779;28;20180;-70
2022/03/26 12:40:22;;;;;;;18.42;12.32;;;23.10;49.50;;;;;;4974610;28;20176;-72
2022/03/26 12:42:53;;;;;;;16.25;11.77;;;23.10;49.30;;;;;;4970515;28;20208;-71
2022/03/26 12:45:23;;;;;;;16.40;11.68;;;23.30;49.50;;;;;;4974115;28;20211;-73
2022/03/26 12:47:50;;;;;;;16.50;11.82;;;23.30;49.20;;;;;;4969055;28;20184;-71
2022/03/26 12:50:25;;;;;;;16.48;11.85;;;23.40;49.20;;;;;;4971957;28;20227;-68
2022/03/26 12:52:51;;;;;;;19.88;13.57;;;23.50;48.80;;;;;;4985957;28;20203;-73
2022/03/26 12:55:18;;;;;;;17.05;13.13;;;23.50;48.60;;;;;;4970614;28;20207;-71
2022/03/26 13:00:34;;;;;;;21.00;14.05;;;23.50;48.10;;;;;;4972036;28;20194;-71